Nearby METAR Reports

 

KCMH - Columbus, Ohio, USA
Distance from station: SW 5mi, 8km
Updated: Mon, 26-Jun-2017 5:51am EDT
Few Clouds
Few Clouds
 Wind from S
Wind: S 3 mph , 6 km/h
Temperature: 55°F , 13°C
Dew Point: 52°F , 11°C
Humidity: 88%
Barometer: 30.09 inHg , 1019 hPa
Clouds: Few Clouds
Visibility: 10 miles , 16 km
Cloud details: Few Clouds 7500 ft
2017/06/26 09:51 KCMH 260951Z 17003KT 10SM FEW075 13/11 A3009 RMK AO2 SLP187 T01330111 $
KOSU - Columbus/St Univ, Ohio, USA
Distance from station: W 14mi, 23km
Updated: Mon, 26-Jun-2017 5:53am EDT
Clear
Clear
 Wind from W
Wind: W 6 mph , 9 km/h
Temperature: 54°F , 12°C
Dew Point: 48°F , 9°C
Humidity: 82%
Barometer: 30.09 inHg , 1019 hPa
Clouds: Clear
Visibility: 10 miles , 16 km
2017/06/26 09:53 KOSU 260953Z AUTO 26005KT 10SM CLR 12/09 A3009 RMK AO2 SLP188 T01220094
 
KLCK - Rickenbacker Ang, Ohio, USA
Distance from station: SSW 17mi, 27km
Updated: Mon, 26-Jun-2017 6:15am EDT
Clear
Clear
 Wind from SSW
Wind: SSW 6 mph , 9 km/h
Temperature: 54°F , 12°C
Dew Point: 52°F , 11°C
Humidity: 94%
Barometer: 30.11 inHg , 1019.6 hPa
Clouds: Clear
Visibility: 10 miles , 16 km
2017/06/26 10:15 KLCK 261015Z AUTO 21005KT 10SM CLR 12/11 A3011 RMK AO2 T01170109
KVTA - Newark, Ohio, USA
Distance from station: E 19mi, 30km
Updated: Mon, 26-Jun-2017 5:54am EDT
Clear
Clear
 Wind from calm
Wind: Calm
Temperature: 50°F , 10°C
Dew Point: 48°F , 9°C
Humidity: 94%
Barometer: 30.09 inHg , 1019 hPa
Clouds: Clear
Visibility: 10 miles , 16 km
2017/06/26 09:54 KVTA 260954Z AUTO 00000KT 10SM CLR 10/09 A3009 RMK AO2 SLP188 T01000089
 
KTZR - Columbus/Bolton, Ohio, USA
Distance from station: WSW 20mi, 31km
Updated: Sun, 25-Jun-2017 6:47pm EDT
NOT Current
Clear
Clear
 Wind from NW
Wind: NW 18 mph , 30 km/h, Gust: 24 mph , 39 km/h
Temperature: 72°F , 22°C
Dew Point: 46°F , 8°C
Humidity: 41%
Barometer: 30.09 inHg , 1019 hPa
Clouds: Clear
Visibility: 10 miles , 16 km
2017/06/25 22:47 KTZR 252247Z 31016G21KT 10SM SKC 22/08 A3009
KLHQ - Lancaster, Ohio, USA
Distance from station: SSE 22mi, 36km
Updated: Mon, 26-Jun-2017 5:53am EDT
Few Clouds
Few Clouds
 Wind from calm
Wind: Calm
Temperature: 52°F , 11°C
Dew Point: 48°F , 9°C
Humidity: 88%
Barometer: 30.11 inHg , 1019.6 hPa
Clouds: Few Clouds
Visibility: 10 miles , 16 km
Cloud details: Few Clouds 7500 ft
2017/06/26 09:53 KLHQ 260953Z AUTO 00000KT 10SM FEW075 11/09 A3011 RMK AO2 SLP192 T01110094 $
 
KDLZ - Delaware, Ohio, USA
Distance from station: NW 23mi, 36km
Updated: Mon, 26-Jun-2017 6:14am EDT
Clear
Clear
 Wind from calm
Wind: Calm
Temperature: 54°F , 12°C
Dew Point: 46°F , 8°C
Humidity: 77%
Barometer: 30.10 inHg , 1019.3 hPa
Clouds: Clear
Visibility: 10 miles , 16 km
2017/06/26 10:14 KDLZ 261014Z AUTO 00000KT 10SM CLR 12/08 A3010 RMK AO2
K4I3 - Mt Vernon/Knox, Ohio, USA
Distance from station: NE 25mi, 40km
Updated: Mon, 26-Jun-2017 6:17am EDT
Clear
Clear
 Wind from WSW
Wind: WSW 3 mph , 6 km/h
Temperature: 54°F , 12°C
Dew Point: 48°F , 9°C
Humidity: 82%
Barometer: 30.11 inHg , 1019.6 hPa
Clouds: Clear
Visibility: 10 miles , 16 km
2017/06/26 10:17 K4I3 261017Z AUTO 25003KT 10SM CLR 12/09 A3011 RMK AO2
 
KMRT - Marysville, Ohio, USA
Distance from station: WNW 30mi, 49km
Updated: Mon, 26-Jun-2017 6:13am EDT
Clear
Clear
 Wind from W
Wind: W 7 mph , 11 km/h
Temperature: 54°F , 12°C
Dew Point: 48°F , 9°C
Humidity: 82%
Barometer: 30.11 inHg , 1019.6 hPa
Clouds: Clear
Visibility: 10 miles , 16 km
2017/06/26 10:13 KMRT 261013Z AUTO 28006KT 10SM CLR 12/09 A3011 RMK AO2 T01200093
KMNN - Marion, Ohio, USA
Distance from station: NNW 41mi, 67km
Updated: Mon, 26-Jun-2017 5:53am EDT
Clear
Clear
 Wind from W
Wind: W 7 mph , 11 km/h
Temperature: 55°F , 13°C
Dew Point: 48°F , 9°C
Humidity: 77%
Barometer: 30.09 inHg , 1019 hPa
Clouds: Clear
Visibility: 10 miles , 16 km
2017/06/26 09:53 KMNN 260953Z AUTO 26006KT 10SM CLR 13/09 A3009 RMK AO2 SLP186 T01330089
 
KZZV - Zanesville, Ohio, USA
Distance from station: E 49mi, 79km
Updated: Mon, 26-Jun-2017 5:53am EDT
Clear
Clear
 Wind from calm
Wind: Calm
Temperature: 52°F , 11°C
Dew Point: 48°F , 9°C
Humidity: 88%
Barometer: 30.10 inHg , 1019.3 hPa
Clouds: Clear
Visibility: 10 miles , 16 km
2017/06/26 09:53 KZZV 260953Z AUTO 00000KT 10SM CLR 11/09 A3010 RMK AO2 SLP188 T01060089